sensor_id;sensor_type;location;lat;lon;timestamp;temperature;humidity
4584;DHT22;2304;47.606;12.186;2022-09-21T00:02:45;10.80;82.90
4584;DHT22;2304;47.606;12.186;2022-09-21T00:07:46;10.80;83.10
4584;DHT22;2304;47.606;12.186;2022-09-21T00:12:48;10.70;83.70
4584;DHT22;2304;47.606;12.186;2022-09-21T00:17:53;10.70;83.90
4584;DHT22;2304;47.606;12.186;2022-09-21T00:22:55;10.90;84.10
4584;DHT22;2304;47.606;12.186;2022-09-21T00:27:57;10.70;84.00
4584;DHT22;2304;47.606;12.186;2022-09-21T00:33:00;10.70;84.20
4584;DHT22;2304;47.606;12.186;2022-09-21T00:38:02;10.60;84.50
4584;DHT22;2304;47.606;12.186;2022-09-21T00:43:11;10.60;84.70
4584;DHT22;2304;47.606;12.186;2022-09-21T00:48:15;10.70;84.50
4584;DHT22;2304;47.606;12.186;2022-09-21T00:53:17;10.70;83.70
4584;DHT22;2304;47.606;12.186;2022-09-21T00:58:24;10.70;84.20
4584;DHT22;2304;47.606;12.186;2022-09-21T01:03:29;10.60;84.60
4584;DHT22;2304;47.606;12.186;2022-09-21T01:08:31;10.70;83.70
4584;DHT22;2304;47.606;12.186;2022-09-21T01:13:46;10.60;83.50
4584;DHT22;2304;47.606;12.186;2022-09-21T01:18:56;10.60;82.90
4584;DHT22;2304;47.606;12.186;2022-09-21T01:24:30;10.60;82.60
4584;DHT22;2304;47.606;12.186;2022-09-21T01:29:39;10.60;82.00
4584;DHT22;2304;47.606;12.186;2022-09-21T01:34:47;10.60;82.50
4584;DHT22;2304;47.606;12.186;2022-09-21T01:39:54;10.50;83.30
4584;DHT22;2304;47.606;12.186;2022-09-21T01:45:01;10.50;84.10
4584;DHT22;2304;47.606;12.186;2022-09-21T01:50:06;10.50;83.90
4584;DHT22;2304;47.606;12.186;2022-09-21T01:55:12;10.50;83.10
4584;DHT22;2304;47.606;12.186;2022-09-21T02:00:18;10.40;83.10
4584;DHT22;2304;47.606;12.186;2022-09-21T02:05:21;10.40;83.20
4584;DHT22;2304;47.606;12.186;2022-09-21T02:10:30;10.30;83.00
4584;DHT22;2304;47.606;12.186;2022-09-21T02:15:43;10.60;83.30
4584;DHT22;2304;47.606;12.186;2022-09-21T02:20:54;10.30;83.40
4584;DHT22;2304;47.606;12.186;2022-09-21T02:26:03;10.30;83.40
4584;DHT22;2304;47.606;12.186;2022-09-21T02:31:13;10.30;83.40
4584;DHT22;2304;47.606;12.186;2022-09-21T02:36:21;10.30;83.30
4584;DHT22;2304;47.606;12.186;2022-09-21T02:41:36;10.30;83.80
4584;DHT22;2304;47.606;12.186;2022-09-21T02:46:44;10.40;83.00
4584;DHT22;2304;47.606;12.186;2022-09-21T02:51:50;10.40;82.20
4584;DHT22;2304;47.606;12.186;2022-09-21T02:56:53;10.50;82.80
4584;DHT22;2304;47.606;12.186;2022-09-21T03:01:56;10.30;83.30
4584;DHT22;2304;47.606;12.186;2022-09-21T03:06:58;10.30;83.40
4584;DHT22;2304;47.606;12.186;2022-09-21T03:12:00;10.20;83.90
4584;DHT22;2304;47.606;12.186;2022-09-21T03:17:03;10.20;84.00
4584;DHT22;2304;47.606;12.186;2022-09-21T03:22:05;10.20;83.90
4584;DHT22;2304;47.606;12.186;2022-09-21T03:27:07;10.20;84.10
4584;DHT22;2304;47.606;12.186;2022-09-21T03:32:10;10.10;83.90
4584;DHT22;2304;47.606;12.186;2022-09-21T03:37:12;10.10;83.50
4584;DHT22;2304;47.606;12.186;2022-09-21T03:42:13;10.10;84.50
4584;DHT22;2304;47.606;12.186;2022-09-21T03:47:17;10.00;83.70
4584;DHT22;2304;47.606;12.186;2022-09-21T03:52:20;10.10;83.60
4584;DHT22;2304;47.606;12.186;2022-09-21T03:57:22;10.00;83.30
4584;DHT22;2304;47.606;12.186;2022-09-21T04:02:25;10.20;83.90
4584;DHT22;2304;47.606;12.186;2022-09-21T04:07:29;9.90;83.60
4584;DHT22;2304;47.606;12.186;2022-09-21T04:12:33;9.90;82.90
4584;DHT22;2304;47.606;12.186;2022-09-21T04:17:37;9.80;83.40
4584;DHT22;2304;47.606;12.186;2022-09-21T04:22:39;9.80;83.90
4584;DHT22;2304;47.606;12.186;2022-09-21T04:27:41;9.70;84.30
4584;DHT22;2304;47.606;12.186;2022-09-21T04:32:44;9.70;84.20
4584;DHT22;2304;47.606;12.186;2022-09-21T04:37:46;9.60;84.00
4584;DHT22;2304;47.606;12.186;2022-09-21T04:42:50;9.50;84.00
4584;DHT22;2304;47.606;12.186;2022-09-21T04:47:53;9.50;83.90
4584;DHT22;2304;47.606;12.186;2022-09-21T04:52:55;9.30;83.70
4584;DHT22;2304;47.606;12.186;2022-09-21T04:57:57;9.20;83.80
4584;DHT22;2304;47.606;12.186;2022-09-21T05:03:01;9.00;84.70
4584;DHT22;2304;47.606;12.186;2022-09-21T05:08:02;9.00;85.60
4584;DHT22;2304;47.606;12.186;2022-09-21T05:13:04;9.10;86.60
4584;DHT22;2304;47.606;12.186;2022-09-21T05:18:07;9.10;85.90
4584;DHT22;2304;47.606;12.186;2022-09-21T05:23:09;9.00;85.60
4584;DHT22;2304;47.606;12.186;2022-09-21T05:28:11;9.00;85.30
4584;DHT22;2304;47.606;12.186;2022-09-21T05:33:18;9.30;85.60
4584;DHT22;2304;47.606;12.186;2022-09-21T05:38:21;9.10;85.50
4584;DHT22;2304;47.606;12.186;2022-09-21T05:43:23;9.10;85.50
4584;DHT22;2304;47.606;12.186;2022-09-21T05:48:31;9.10;85.80
4584;DHT22;2304;47.606;12.186;2022-09-21T05:53:47;9.10;85.80
4584;DHT22;2304;47.606;12.186;2022-09-21T05:58:55;9.10;85.70
4584;DHT22;2304;47.606;12.186;2022-09-21T06:04:01;9.00;85.00
4584;DHT22;2304;47.606;12.186;2022-09-21T06:09:03;8.90;85.00
4584;DHT22;2304;47.606;12.186;2022-09-21T06:14:05;9.00;85.10
4584;DHT22;2304;47.606;12.186;2022-09-21T06:19:11;9.10;85.60
4584;DHT22;2304;47.606;12.186;2022-09-21T06:24:13;9.10;85.10
4584;DHT22;2304;47.606;12.186;2022-09-21T06:29:14;9.20;85.10
4584;DHT22;2304;47.606;12.186;2022-09-21T06:34:19;9.30;84.50
4584;DHT22;2304;47.606;12.186;2022-09-21T06:39:21;9.40;85.00
4584;DHT22;2304;47.606;12.186;2022-09-21T06:44:23;9.50;84.40
4584;DHT22;2304;47.606;12.186;2022-09-21T06:49:26;9.60;84.20
4584;DHT22;2304;47.606;12.186;2022-09-21T06:54:29;9.70;83.60
4584;DHT22;2304;47.606;12.186;2022-09-21T06:59:31;9.60;82.10
4584;DHT22;2304;47.606;12.186;2022-09-21T07:04:34;9.60;80.30
4584;DHT22;2304;47.606;12.186;2022-09-21T07:09:35;9.40;79.70
4584;DHT22;2304;47.606;12.186;2022-09-21T07:14:37;9.40;79.80
4584;DHT22;2304;47.606;12.186;2022-09-21T07:19:40;9.40;79.90
4584;DHT22;2304;47.606;12.186;2022-09-21T07:24:42;9.50;80.10
4584;DHT22;2304;47.606;12.186;2022-09-21T07:29:44;9.80;80.40
4584;DHT22;2304;47.606;12.186;2022-09-21T07:34:47;9.60;80.90
4584;DHT22;2304;47.606;12.186;2022-09-21T07:39:49;9.70;80.50
4584;DHT22;2304;47.606;12.186;2022-09-21T07:44:51;10.00;81.40
4584;DHT22;2304;47.606;12.186;2022-09-21T07:49:55;10.20;81.00
4584;DHT22;2304;47.606;12.186;2022-09-21T07:54:57;10.20;80.00
4584;DHT22;2304;47.606;12.186;2022-09-21T07:59:58;10.30;79.50
4584;DHT22;2304;47.606;12.186;2022-09-21T08:05:02;10.30;77.90
4584;DHT22;2304;47.606;12.186;2022-09-21T08:10:04;10.30;77.70
4584;DHT22;2304;47.606;12.186;2022-09-21T08:15:07;10.30;77.10
4584;DHT22;2304;47.606;12.186;2022-09-21T08:20:11;10.40;76.90
4584;DHT22;2304;47.606;12.186;2022-09-21T08:25:13;10.60;76.70
4584;DHT22;2304;47.606;12.186;2022-09-21T08:30:15;10.40;75.20
4584;DHT22;2304;47.606;12.186;2022-09-21T08:35:18;11.20;78.70
4584;DHT22;2304;47.606;12.186;2022-09-21T08:40:20;11.80;76.70
4584;DHT22;2304;47.606;12.186;2022-09-21T08:45:25;12.40;75.20
4584;DHT22;2304;47.606;12.186;2022-09-21T08:50:34;12.70;71.60
4584;DHT22;2304;47.606;12.186;2022-09-21T08:55:38;13.10;70.00
4584;DHT22;2304;47.606;12.186;2022-09-21T09:00:39;13.30;66.80
4584;DHT22;2304;47.606;12.186;2022-09-21T09:05:48;13.80;69.30
4584;DHT22;2304;47.606;12.186;2022-09-21T09:10:58;13.80;66.80
4584;DHT22;2304;47.606;12.186;2022-09-21T09:16:09;14.40;66.70
4584;DHT22;2304;47.606;12.186;2022-09-21T09:21:20;14.90;66.00
4584;DHT22;2304;47.606;12.186;2022-09-21T09:26:26;14.70;61.20
4584;DHT22;2304;47.606;12.186;2022-09-21T09:31:32;14.80;63.00
4584;DHT22;2304;47.606;12.186;2022-09-21T09:36:36;15.20;63.00
4584;DHT22;2304;47.606;12.186;2022-09-21T09:47:18;14.70;65.10
4584;DHT22;2304;47.606;12.186;2022-09-21T09:52:25;14.70;62.60
4584;DHT22;2304;47.606;12.186;2022-09-21T09:57:29;14.60;63.10
4584;DHT22;2304;47.606;12.186;2022-09-21T10:02:31;14.20;62.80
4584;DHT22;2304;47.606;12.186;2022-09-21T10:07:36;14.30;62.30
4584;DHT22;2304;47.606;12.186;2022-09-21T10:12:38;14.40;62.10
4584;DHT22;2304;47.606;12.186;2022-09-21T10:17:40;15.20;62.20
4584;DHT22;2304;47.606;12.186;2022-09-21T10:22:50;15.20;60.20
4584;DHT22;2304;47.606;12.186;2022-09-21T10:27:54;15.20;62.50
4584;DHT22;2304;47.606;12.186;2022-09-21T10:32:58;15.70;63.90
4584;DHT22;2304;47.606;12.186;2022-09-21T10:38:15;16.10;62.50
4584;DHT22;2304;47.606;12.186;2022-09-21T10:43:23;16.00;62.00
4584;DHT22;2304;47.606;12.186;2022-09-21T10:48:26;16.70;64.30
4584;DHT22;2304;47.606;12.186;2022-09-21T10:53:31;17.30;60.50
4584;DHT22;2304;47.606;12.186;2022-09-21T10:58:34;17.40;59.60
4584;DHT22;2304;47.606;12.186;2022-09-21T11:03:44;17.10;58.80
4584;DHT22;2304;47.606;12.186;2022-09-21T11:08:54;16.80;59.00
4584;DHT22;2304;47.606;12.186;2022-09-21T11:14:02;16.90;60.00
4584;DHT22;2304;47.606;12.186;2022-09-21T11:19:11;17.50;61.70
4584;DHT22;2304;47.606;12.186;2022-09-21T11:24:23;18.00;58.40
4584;DHT22;2304;47.606;12.186;2022-09-21T11:29:34;18.60;59.00
4584;DHT22;2304;47.606;12.186;2022-09-21T11:35:06;19.20;55.50
4584;DHT22;2304;47.606;12.186;2022-09-21T11:40:26;19.30;53.80
4584;DHT22;2304;47.606;12.186;2022-09-21T11:45:50;19.20;54.60
4584;DHT22;2304;47.606;12.186;2022-09-21T11:51:04;18.90;53.50
4584;DHT22;2304;47.606;12.186;2022-09-21T12:01:56;19.40;50.60
4584;DHT22;2304;47.606;12.186;2022-09-21T12:07:12;19.80;49.40
4584;DHT22;2304;47.606;12.186;2022-09-21T12:12:21;20.00;49.10
4584;DHT22;2304;47.606;12.186;2022-09-21T12:17:33;20.20;47.80
4584;DHT22;2304;47.606;12.186;2022-09-21T12:22:41;20.40;48.50
4584;DHT22;2304;47.606;12.186;2022-09-21T12:27:48;20.70;48.20
4584;DHT22;2304;47.606;12.186;2022-09-21T12:32:57;20.80;45.20
4584;DHT22;2304;47.606;12.186;2022-09-21T12:38:03;20.60;45.60
4584;DHT22;2304;47.606;12.186;2022-09-21T12:43:15;20.70;44.90
4584;DHT22;2304;47.606;12.186;2022-09-21T12:48:27;20.50;43.10
4584;DHT22;2304;47.606;12.186;2022-09-21T12:53:34;20.40;42.40
4584;DHT22;2304;47.606;12.186;2022-09-21T12:58:52;20.30;42.60
4584;DHT22;2304;47.606;12.186;2022-09-21T13:04:09;20.20;42.30
4584;DHT22;2304;47.606;12.186;2022-09-21T13:09:15;20.40;45.50
4584;DHT22;2304;47.606;12.186;2022-09-21T13:14:20;20.40;45.50
4584;DHT22;2304;47.606;12.186;2022-09-21T13:19:25;20.40;43.90
4584;DHT22;2304;47.606;12.186;2022-09-21T13:24:29;20.50;44.00
4584;DHT22;2304;47.606;12.186;2022-09-21T13:29:34;20.40;45.10
4584;DHT22;2304;47.606;12.186;2022-09-21T13:34:37;20.50;44.70
4584;DHT22;2304;47.606;12.186;2022-09-21T13:39:42;20.60;45.30
4584;DHT22;2304;47.606;12.186;2022-09-21T13:44:46;20.30;45.10
4584;DHT22;2304;47.606;12.186;2022-09-21T13:49:49;20.20;46.20
4584;DHT22;2304;47.606;12.186;2022-09-21T13:54:54;20.00;44.60
4584;DHT22;2304;47.606;12.186;2022-09-21T14:00:31;19.20;44.60
4584;DHT22;2304;47.606;12.186;2022-09-21T14:05:37;19.20;46.50
4584;DHT22;2304;47.606;12.186;2022-09-21T14:10:48;19.30;46.90
4584;DHT22;2304;47.606;12.186;2022-09-21T14:15:52;19.40;46.20
4584;DHT22;2304;47.606;12.186;2022-09-21T14:21:10;19.40;46.30
4584;DHT22;2304;47.606;12.186;2022-09-21T14:26:31;19.40;46.10
4584;DHT22;2304;47.606;12.186;2022-09-21T14:31:36;19.50;46.70
4584;DHT22;2304;47.606;12.186;2022-09-21T14:36:41;19.50;46.00
4584;DHT22;2304;47.606;12.186;2022-09-21T14:41:48;19.40;45.50
4584;DHT22;2304;47.606;12.186;2022-09-21T14:52:23;19.30;45.80
4584;DHT22;2304;47.606;12.186;2022-09-21T15:03:10;19.10;46.40
4584;DHT22;2304;47.606;12.186;2022-09-21T15:08:42;18.80;44.30
4584;DHT22;2304;47.606;12.186;2022-09-21T15:14:14;18.80;44.60
4584;DHT22;2304;47.606;12.186;2022-09-21T15:19:23;18.70;46.40
4584;DHT22;2304;47.606;12.186;2022-09-21T15:24:29;18.40;45.60
4584;DHT22;2304;47.606;12.186;2022-09-21T15:29:32;18.20;45.60
4584;DHT22;2304;47.606;12.186;2022-09-21T15:34:35;18.00;46.40
4584;DHT22;2304;47.606;12.186;2022-09-21T15:39:37;17.90;47.30
4584;DHT22;2304;47.606;12.186;2022-09-21T15:44:40;17.90;46.80
4584;DHT22;2304;47.606;12.186;2022-09-21T15:49:47;17.50;46.00
4584;DHT22;2304;47.606;12.186;2022-09-21T15:54:54;17.30;46.20
4584;DHT22;2304;47.606;12.186;2022-09-21T15:59:59;17.10;47.00
4584;DHT22;2304;47.606;12.186;2022-09-21T16:05:07;17.20;47.80
4584;DHT22;2304;47.606;12.186;2022-09-21T16:10:38;16.70;47.90
4584;DHT22;2304;47.606;12.186;2022-09-21T16:15:40;16.50;47.80
4584;DHT22;2304;47.606;12.186;2022-09-21T16:20:45;16.40;47.90
4584;DHT22;2304;47.606;12.186;2022-09-21T16:25:52;16.30;49.30
4584;DHT22;2304;47.606;12.186;2022-09-21T16:30:56;16.40;49.20
4584;DHT22;2304;47.606;12.186;2022-09-21T16:36:01;16.00;49.00
4584;DHT22;2304;47.606;12.186;2022-09-21T16:41:03;15.80;50.30
4584;DHT22;2304;47.606;12.186;2022-09-21T16:46:05;15.70;50.80
4584;DHT22;2304;47.606;12.186;2022-09-21T16:51:11;15.50;50.80
4584;DHT22;2304;47.606;12.186;2022-09-21T16:56:13;15.40;50.80
4584;DHT22;2304;47.606;12.186;2022-09-21T17:01:17;15.20;51.00
4584;DHT22;2304;47.606;12.186;2022-09-21T17:06:21;15.00;51.60
4584;DHT22;2304;47.606;12.186;2022-09-21T17:11:23;15.00;51.90
4584;DHT22;2304;47.606;12.186;2022-09-21T17:16:24;14.90;52.30
4584;DHT22;2304;47.606;12.186;2022-09-21T17:21:27;14.80;52.80
4584;DHT22;2304;47.606;12.186;2022-09-21T17:26:29;14.70;53.10
4584;DHT22;2304;47.606;12.186;2022-09-21T17:31:31;14.60;53.80
4584;DHT22;2304;47.606;12.186;2022-09-21T17:36:35;14.50;54.90
4584;DHT22;2304;47.606;12.186;2022-09-21T17:41:42;14.40;55.00
4584;DHT22;2304;47.606;12.186;2022-09-21T17:46:50;14.20;55.30
4584;DHT22;2304;47.606;12.186;2022-09-21T17:51:56;14.20;56.10
4584;DHT22;2304;47.606;12.186;2022-09-21T17:57:28;14.10;57.10
4584;DHT22;2304;47.606;12.186;2022-09-21T18:02:31;14.00;57.30
4584;DHT22;2304;47.606;12.186;2022-09-21T18:07:35;13.90;58.40
4584;DHT22;2304;47.606;12.186;2022-09-21T18:13:05;13.80;58.00
4584;DHT22;2304;47.606;12.186;2022-09-21T18:18:15;13.70;58.90
4584;DHT22;2304;47.606;12.186;2022-09-21T18:23:24;13.60;59.00
4584;DHT22;2304;47.606;12.186;2022-09-21T18:28:37;13.50;60.10
4584;DHT22;2304;47.606;12.186;2022-09-21T18:33:46;13.30;60.10
4584;DHT22;2304;47.606;12.186;2022-09-21T18:39:00;13.20;60.20
4584;DHT22;2304;47.606;12.186;2022-09-21T18:44:11;13.10;60.40
4584;DHT22;2304;47.606;12.186;2022-09-21T18:49:19;13.10;60.60
4584;DHT22;2304;47.606;12.186;2022-09-21T18:54:28;13.00;61.10
4584;DHT22;2304;47.606;12.186;2022-09-21T18:59:30;12.90;61.20
4584;DHT22;2304;47.606;12.186;2022-09-21T19:04:32;12.80;61.30
4584;DHT22;2304;47.606;12.186;2022-09-21T19:09:43;12.70;61.60
4584;DHT22;2304;47.606;12.186;2022-09-21T19:14:56;12.60;61.60
4584;DHT22;2304;47.606;12.186;2022-09-21T19:20:11;12.60;61.80
4584;DHT22;2304;47.606;12.186;2022-09-21T19:25:22;12.40;62.20
4584;DHT22;2304;47.606;12.186;2022-09-21T19:30:28;12.30;62.70
4584;DHT22;2304;47.606;12.186;2022-09-21T19:35:31;12.30;63.10
4584;DHT22;2304;47.606;12.186;2022-09-21T19:40:37;12.20;63.00
4584;DHT22;2304;47.606;12.186;2022-09-21T19:45:46;12.10;64.10
4584;DHT22;2304;47.606;12.186;2022-09-21T19:50:54;12.00;63.60
4584;DHT22;2304;47.606;12.186;2022-09-21T19:55:59;11.90;63.70
4584;DHT22;2304;47.606;12.186;2022-09-21T20:01:20;11.90;64.50
4584;DHT22;2304;47.606;12.186;2022-09-21T20:06:25;11.80;65.70
4584;DHT22;2304;47.606;12.186;2022-09-21T20:11:35;11.60;65.00
4584;DHT22;2304;47.606;12.186;2022-09-21T20:16:45;11.60;65.00
4584;DHT22;2304;47.606;12.186;2022-09-21T20:21:52;11.60;64.70
4584;DHT22;2304;47.606;12.186;2022-09-21T20:26:58;11.50;67.50
4584;DHT22;2304;47.606;12.186;2022-09-21T20:32:03;11.40;65.30
4584;DHT22;2304;47.606;12.186;2022-09-21T20:37:09;11.40;65.00
4584;DHT22;2304;47.606;12.186;2022-09-21T20:42:18;11.40;65.10
4584;DHT22;2304;47.606;12.186;2022-09-21T20:47:20;11.30;65.50
4584;DHT22;2304;47.606;12.186;2022-09-21T20:52:22;11.20;65.60
4584;DHT22;2304;47.606;12.186;2022-09-21T20:57:25;11.10;65.70
4584;DHT22;2304;47.606;12.186;2022-09-21T21:02:27;11.00;65.70
4584;DHT22;2304;47.606;12.186;2022-09-21T21:07:28;11.00;65.60
4584;DHT22;2304;47.606;12.186;2022-09-21T21:12:31;11.10;66.20
4584;DHT22;2304;47.606;12.186;2022-09-21T21:17:33;10.80;65.90
4584;DHT22;2304;47.606;12.186;2022-09-21T21:22:35;11.00;65.70
4584;DHT22;2304;47.606;12.186;2022-09-21T21:27:39;10.70;66.00
4584;DHT22;2304;47.606;12.186;2022-09-21T21:32:40;10.70;66.50
4584;DHT22;2304;47.606;12.186;2022-09-21T21:37:42;10.60;67.20
4584;DHT22;2304;47.606;12.186;2022-09-21T21:42:46;10.60;66.70
4584;DHT22;2304;47.606;12.186;2022-09-21T21:47:48;10.70;66.50
4584;DHT22;2304;47.606;12.186;2022-09-21T21:52:50;10.50;66.90
4584;DHT22;2304;47.606;12.186;2022-09-21T21:57:53;10.50;66.70
4584;DHT22;2304;47.606;12.186;2022-09-21T22:02:56;10.40;66.50
4584;DHT22;2304;47.606;12.186;2022-09-21T22:07:58;10.40;66.50
4584;DHT22;2304;47.606;12.186;2022-09-21T22:13:01;10.60;66.90
4584;DHT22;2304;47.606;12.186;2022-09-21T22:18:06;10.30;67.20
4584;DHT22;2304;47.606;12.186;2022-09-21T22:23:08;10.20;67.30
4584;DHT22;2304;47.606;12.186;2022-09-21T22:28:11;10.10;67.30
4584;DHT22;2304;47.606;12.186;2022-09-21T22:33:12;10.10;66.80
4584;DHT22;2304;47.606;12.186;2022-09-21T22:38:14;10.30;66.70
4584;DHT22;2304;47.606;12.186;2022-09-21T22:43:17;10.00;66.20
4584;DHT22;2304;47.606;12.186;2022-09-21T22:48:19;10.20;66.70
4584;DHT22;2304;47.606;12.186;2022-09-21T22:53:21;9.80;66.80
4584;DHT22;2304;47.606;12.186;2022-09-21T22:58:24;9.80;66.90
4584;DHT22;2304;47.606;12.186;2022-09-21T23:03:26;9.80;66.60
4584;DHT22;2304;47.606;12.186;2022-09-21T23:08:28;9.70;66.70
4584;DHT22;2304;47.606;12.186;2022-09-21T23:13:32;9.70;67.20
4584;DHT22;2304;47.606;12.186;2022-09-21T23:18:34;9.70;67.40
4584;DHT22;2304;47.606;12.186;2022-09-21T23:23:36;9.70;66.80
4584;DHT22;2304;47.606;12.186;2022-09-21T23:28:40;9.60;66.80
4584;DHT22;2304;47.606;12.186;2022-09-21T23:33:44;9.50;66.90
4584;DHT22;2304;47.606;12.186;2022-09-21T23:38:47;9.50;67.00
4584;DHT22;2304;47.606;12.186;2022-09-21T23:43:51;9.50;67.00
4584;DHT22;2304;47.606;12.186;2022-09-21T23:48:53;9.40;67.20
4584;DHT22;2304;47.606;12.186;2022-09-21T23:53:55;9.40;67.80
4584;DHT22;2304;47.606;12.186;2022-09-21T23:58:59;9.20;67.70
